sensor_id;sensor_type;location;lat;lon;timestamp;P1;durP1;ratioP1;P2;durP2;ratioP2
81382;SDS011;70834;37.534;-122.308;2023-08-17T00:00:30;2.55;;;2.10;;
81382;SDS011;70834;37.534;-122.308;2023-08-17T00:02:51;3.55;;;1.85;;
81382;SDS011;70834;37.534;-122.308;2023-08-17T00:05:13;3.97;;;2.20;;
81382;SDS011;70834;37.534;-122.308;2023-08-17T00:07:34;2.88;;;2.47;;
81382;SDS011;70834;37.534;-122.308;2023-08-17T00:09:56;2.50;;;2.10;;
81382;SDS011;70834;37.534;-122.308;2023-08-17T00:12:18;2.67;;;2.22;;
81382;SDS011;70834;37.534;-122.308;2023-08-17T00:14:39;2.78;;;2.35;;
81382;SDS011;70834;37.534;-122.308;2023-08-17T00:17:00;3.60;;;2.13;;
81382;SDS011;70834;37.534;-122.308;2023-08-17T00:19:23;3.25;;;2.35;;
81382;SDS011;70834;37.534;-122.308;2023-08-17T00:21:45;2.92;;;2.45;;
81382;SDS011;70834;37.534;-122.308;2023-08-17T00:24:06;2.78;;;2.05;;
81382;SDS011;70834;37.534;-122.308;2023-08-17T00:26:28;2.50;;;2.30;;
81382;SDS011;70834;37.534;-122.308;2023-08-17T00:28:49;5.22;;;2.10;;
81382;SDS011;70834;37.534;-122.308;2023-08-17T00:31:11;2.72;;;2.33;;
81382;SDS011;70834;37.534;-122.308;2023-08-17T00:33:32;3.28;;;2.70;;
81382;SDS011;70834;37.534;-122.308;2023-08-17T00:35:53;3.92;;;2.47;;
81382;SDS011;70834;37.534;-122.308;2023-08-17T00:38:15;3.63;;;2.85;;
81382;SDS011;70834;37.534;-122.308;2023-08-17T00:40:37;3.13;;;2.40;;
81382;SDS011;70834;37.534;-122.308;2023-08-17T00:42:58;4.20;;;2.38;;
81382;SDS011;70834;37.534;-122.308;2023-08-17T00:45:21;5.13;;;2.63;;
81382;SDS011;70834;37.534;-122.308;2023-08-17T00:47:44;2.60;;;1.98;;
81382;SDS011;70834;37.534;-122.308;2023-08-17T00:50:06;3.38;;;2.45;;
81382;SDS011;70834;37.534;-122.308;2023-08-17T00:52:28;3.00;;;2.40;;
81382;SDS011;70834;37.534;-122.308;2023-08-17T00:54:51;2.38;;;2.00;;
81382;SDS011;70834;37.534;-122.308;2023-08-17T00:57:12;4.00;;;2.22;;
81382;SDS011;70834;37.534;-122.308;2023-08-17T00:59:34;2.50;;;2.03;;
81382;SDS011;70834;37.534;-122.308;2023-08-17T01:01:56;2.90;;;2.45;;
81382;SDS011;70834;37.534;-122.308;2023-08-17T01:04:18;2.72;;;1.85;;
81382;SDS011;70834;37.534;-122.308;2023-08-17T01:06:39;2.40;;;1.80;;
81382;SDS011;70834;37.534;-122.308;2023-08-17T01:09:01;3.15;;;1.50;;
81382;SDS011;70834;37.534;-122.308;2023-08-17T01:11:32;2.20;;;1.60;;
81382;SDS011;70834;37.534;-122.308;2023-08-17T01:13:56;1.98;;;1.80;;
81382;SDS011;70834;37.534;-122.308;2023-08-17T01:19:45;4.53;;;1.83;;
81382;SDS011;70834;37.534;-122.308;2023-08-17T01:22:08;3.15;;;1.98;;
81382;SDS011;70834;37.534;-122.308;2023-08-17T01:24:31;3.47;;;2.80;;
81382;SDS011;70834;37.534;-122.308;2023-08-17T01:26:52;6.60;;;2.80;;
81382;SDS011;70834;37.534;-122.308;2023-08-17T01:29:14;4.88;;;3.08;;
81382;SDS011;70834;37.534;-122.308;2023-08-17T01:31:58;3.65;;;3.17;;
81382;SDS011;70834;37.534;-122.308;2023-08-17T01:34:24;3.40;;;2.80;;
81382;SDS011;70834;37.534;-122.308;2023-08-17T01:36:56;4.03;;;2.35;;
81382;SDS011;70834;37.534;-122.308;2023-08-17T01:39:21;5.93;;;2.90;;
81382;SDS011;70834;37.534;-122.308;2023-08-17T01:41:48;4.63;;;3.05;;
81382;SDS011;70834;37.534;-122.308;2023-08-17T01:44:10;3.08;;;2.78;;
81382;SDS011;70834;37.534;-122.308;2023-08-17T01:46:33;4.00;;;2.97;;
81382;SDS011;70834;37.534;-122.308;2023-08-17T01:48:54;4.35;;;2.80;;
81382;SDS011;70834;37.534;-122.308;2023-08-17T01:51:17;3.22;;;2.40;;
81382;SDS011;70834;37.534;-122.308;2023-08-17T01:53:42;4.47;;;2.70;;
81382;SDS011;70834;37.534;-122.308;2023-08-17T01:56:03;2.85;;;2.58;;
81382;SDS011;70834;37.534;-122.308;2023-08-17T01:58:25;3.00;;;2.58;;
81382;SDS011;70834;37.534;-122.308;2023-08-17T02:00:46;3.33;;;2.83;;
81382;SDS011;70834;37.534;-122.308;2023-08-17T02:03:08;5.82;;;2.70;;
81382;SDS011;70834;37.534;-122.308;2023-08-17T02:05:29;4.00;;;2.60;;
81382;SDS011;70834;37.534;-122.308;2023-08-17T02:07:51;3.53;;;2.42;;
81382;SDS011;70834;37.534;-122.308;2023-08-17T02:10:12;4.35;;;2.75;;
81382;SDS011;70834;37.534;-122.308;2023-08-17T02:12:33;3.03;;;2.72;;
81382;SDS011;70834;37.534;-122.308;2023-08-17T02:14:55;4.57;;;3.17;;
81382;SDS011;70834;37.534;-122.308;2023-08-17T02:17:16;4.43;;;2.80;;
81382;SDS011;70834;37.534;-122.308;2023-08-17T02:19:39;5.18;;;3.38;;
81382;SDS011;70834;37.534;-122.308;2023-08-17T02:22:01;3.70;;;2.97;;
81382;SDS011;70834;37.534;-122.308;2023-08-17T02:24:22;3.28;;;2.60;;
81382;SDS011;70834;37.534;-122.308;2023-08-17T02:26:44;5.35;;;2.90;;
81382;SDS011;70834;37.534;-122.308;2023-08-17T02:29:05;3.05;;;2.60;;
81382;SDS011;70834;37.534;-122.308;2023-08-17T02:31:27;5.35;;;3.10;;
81382;SDS011;70834;37.534;-122.308;2023-08-17T02:33:48;3.00;;;2.70;;
81382;SDS011;70834;37.534;-122.308;2023-08-17T02:36:09;4.97;;;3.00;;
81382;SDS011;70834;37.534;-122.308;2023-08-17T02:38:31;3.78;;;2.50;;
81382;SDS011;70834;37.534;-122.308;2023-08-17T02:40:52;4.43;;;2.40;;
81382;SDS011;70834;37.534;-122.308;2023-08-17T02:43:14;3.90;;;2.60;;
81382;SDS011;70834;37.534;-122.308;2023-08-17T02:45:35;2.70;;;2.33;;
81382;SDS011;70834;37.534;-122.308;2023-08-17T02:47:57;3.40;;;2.30;;
81382;SDS011;70834;37.534;-122.308;2023-08-17T02:50:18;5.22;;;2.75;;
81382;SDS011;70834;37.534;-122.308;2023-08-17T02:52:39;4.20;;;2.83;;
81382;SDS011;70834;37.534;-122.308;2023-08-17T02:55:01;2.40;;;2.15;;
81382;SDS011;70834;37.534;-122.308;2023-08-17T02:57:22;3.70;;;2.80;;
81382;SDS011;70834;37.534;-122.308;2023-08-17T02:59:44;4.65;;;2.60;;
81382;SDS011;70834;37.534;-122.308;2023-08-17T03:02:06;2.78;;;2.28;;
81382;SDS011;70834;37.534;-122.308;2023-08-17T03:04:27;4.57;;;2.63;;
81382;SDS011;70834;37.534;-122.308;2023-08-17T03:06:49;2.83;;;2.50;;
81382;SDS011;70834;37.534;-122.308;2023-08-17T03:09:10;3.83;;;2.80;;
81382;SDS011;70834;37.534;-122.308;2023-08-17T03:11:32;6.00;;;2.97;;
81382;SDS011;70834;37.534;-122.308;2023-08-17T03:13:53;2.88;;;2.40;;
81382;SDS011;70834;37.534;-122.308;2023-08-17T03:16:20;2.92;;;2.60;;
81382;SDS011;70834;37.534;-122.308;2023-08-17T03:18:41;6.85;;;2.75;;
81382;SDS011;70834;37.534;-122.308;2023-08-17T03:21:03;5.90;;;3.20;;
81382;SDS011;70834;37.534;-122.308;2023-08-17T03:23:24;3.38;;;2.75;;
81382;SDS011;70834;37.534;-122.308;2023-08-17T03:25:46;4.97;;;2.95;;
81382;SDS011;70834;37.534;-122.308;2023-08-17T03:28:11;3.75;;;3.33;;
81382;SDS011;70834;37.534;-122.308;2023-08-17T03:30:33;3.00;;;2.70;;
81382;SDS011;70834;37.534;-122.308;2023-08-17T03:32:55;9.10;;;3.53;;
81382;SDS011;70834;37.534;-122.308;2023-08-17T03:35:16;3.67;;;3.10;;
81382;SDS011;70834;37.534;-122.308;2023-08-17T03:37:37;6.18;;;3.70;;
81382;SDS011;70834;37.534;-122.308;2023-08-17T03:39:59;4.28;;;3.42;;
81382;SDS011;70834;37.534;-122.308;2023-08-17T03:42:23;5.72;;;3.83;;
81382;SDS011;70834;37.534;-122.308;2023-08-17T03:44:45;3.95;;;3.53;;
81382;SDS011;70834;37.534;-122.308;2023-08-17T03:47:06;4.72;;;3.22;;
81382;SDS011;70834;37.534;-122.308;2023-08-17T03:49:27;4.53;;;3.33;;
81382;SDS011;70834;37.534;-122.308;2023-08-17T03:51:49;4.22;;;2.50;;
81382;SDS011;70834;37.534;-122.308;2023-08-17T03:54:11;3.97;;;2.40;;
81382;SDS011;70834;37.534;-122.308;2023-08-17T03:56:33;4.40;;;2.50;;
81382;SDS011;70834;37.534;-122.308;2023-08-17T03:58:54;4.07;;;2.10;;
81382;SDS011;70834;37.534;-122.308;2023-08-17T04:01:16;4.07;;;2.40;;
81382;SDS011;70834;37.534;-122.308;2023-08-17T04:03:37;5.00;;;2.47;;
81382;SDS011;70834;37.534;-122.308;2023-08-17T04:06:03;3.85;;;2.30;;
81382;SDS011;70834;37.534;-122.308;2023-08-17T04:08:26;4.55;;;2.33;;
81382;SDS011;70834;37.534;-122.308;2023-08-17T04:10:48;4.07;;;2.20;;
81382;SDS011;70834;37.534;-122.308;2023-08-17T04:13:09;3.55;;;2.63;;
81382;SDS011;70834;37.534;-122.308;2023-08-17T04:15:30;4.03;;;2.10;;
81382;SDS011;70834;37.534;-122.308;2023-08-17T04:17:52;3.25;;;2.00;;
81382;SDS011;70834;37.534;-122.308;2023-08-17T04:20:13;3.35;;;2.22;;
81382;SDS011;70834;37.534;-122.308;2023-08-17T04:22:35;3.65;;;2.13;;
81382;SDS011;70834;37.534;-122.308;2023-08-17T04:24:56;2.75;;;1.77;;
81382;SDS011;70834;37.534;-122.308;2023-08-17T04:27:18;2.85;;;2.00;;
81382;SDS011;70834;37.534;-122.308;2023-08-17T04:29:39;2.72;;;1.98;;
81382;SDS011;70834;37.534;-122.308;2023-08-17T04:32:00;2.22;;;1.77;;
81382;SDS011;70834;37.534;-122.308;2023-08-17T04:34:22;4.28;;;2.03;;
81382;SDS011;70834;37.534;-122.308;2023-08-17T04:37:04;2.72;;;1.65;;
81382;SDS011;70834;37.534;-122.308;2023-08-17T04:39:25;3.25;;;2.20;;
81382;SDS011;70834;37.534;-122.308;2023-08-17T04:41:47;3.28;;;2.00;;
81382;SDS011;70834;37.534;-122.308;2023-08-17T04:44:09;3.15;;;1.90;;
81382;SDS011;70834;37.534;-122.308;2023-08-17T04:46:30;2.58;;;1.77;;
81382;SDS011;70834;37.534;-122.308;2023-08-17T04:48:51;2.78;;;2.00;;
81382;SDS011;70834;37.534;-122.308;2023-08-17T04:51:13;5.20;;;2.70;;
81382;SDS011;70834;37.534;-122.308;2023-08-17T04:53:35;4.57;;;1.98;;
81382;SDS011;70834;37.534;-122.308;2023-08-17T04:55:56;3.88;;;2.10;;
81382;SDS011;70834;37.534;-122.308;2023-08-17T04:58:19;3.92;;;2.08;;
81382;SDS011;70834;37.534;-122.308;2023-08-17T05:00:40;4.10;;;2.22;;
81382;SDS011;70834;37.534;-122.308;2023-08-17T05:03:01;2.92;;;2.03;;
81382;SDS011;70834;37.534;-122.308;2023-08-17T05:05:23;2.88;;;1.80;;
81382;SDS011;70834;37.534;-122.308;2023-08-17T05:07:45;2.67;;;1.75;;
81382;SDS011;70834;37.534;-122.308;2023-08-17T05:10:27;3.42;;;1.80;;
81382;SDS011;70834;37.534;-122.308;2023-08-17T05:12:48;2.78;;;1.58;;
81382;SDS011;70834;37.534;-122.308;2023-08-17T05:15:10;1.83;;;1.50;;
81382;SDS011;70834;37.534;-122.308;2023-08-17T05:17:31;1.80;;;1.60;;
81382;SDS011;70834;37.534;-122.308;2023-08-17T05:19:53;1.73;;;1.45;;
81382;SDS011;70834;37.534;-122.308;2023-08-17T05:22:14;1.52;;;1.42;;
81382;SDS011;70834;37.534;-122.308;2023-08-17T05:24:36;2.75;;;1.60;;
81382;SDS011;70834;37.534;-122.308;2023-08-17T05:26:57;2.90;;;1.40;;
81382;SDS011;70834;37.534;-122.308;2023-08-17T05:29:18;3.65;;;1.48;;
81382;SDS011;70834;37.534;-122.308;2023-08-17T05:31:40;3.30;;;1.45;;
81382;SDS011;70834;37.534;-122.308;2023-08-17T05:34:01;2.58;;;1.90;;
81382;SDS011;70834;37.534;-122.308;2023-08-17T05:36:23;3.10;;;1.70;;
81382;SDS011;70834;37.534;-122.308;2023-08-17T05:38:44;3.28;;;1.50;;
81382;SDS011;70834;37.534;-122.308;2023-08-17T05:41:06;3.20;;;1.60;;
81382;SDS011;70834;37.534;-122.308;2023-08-17T05:43:27;2.15;;;1.33;;
81382;SDS011;70834;37.534;-122.308;2023-08-17T05:45:49;2.35;;;1.80;;
81382;SDS011;70834;37.534;-122.308;2023-08-17T05:48:10;2.17;;;1.73;;
81382;SDS011;70834;37.534;-122.308;2023-08-17T05:50:32;1.67;;;1.30;;
81382;SDS011;70834;37.534;-122.308;2023-08-17T05:52:54;2.05;;;1.30;;
81382;SDS011;70834;37.534;-122.308;2023-08-17T05:55:15;4.38;;;1.50;;
81382;SDS011;70834;37.534;-122.308;2023-08-17T05:57:37;1.98;;;1.45;;
81382;SDS011;70834;37.534;-122.308;2023-08-17T05:59:58;2.55;;;1.55;;
81382;SDS011;70834;37.534;-122.308;2023-08-17T06:02:20;2.08;;;1.30;;
81382;SDS011;70834;37.534;-122.308;2023-08-17T06:04:41;3.40;;;1.55;;
81382;SDS011;70834;37.534;-122.308;2023-08-17T06:07:02;2.20;;;1.65;;
81382;SDS011;70834;37.534;-122.308;2023-08-17T06:09:24;2.00;;;1.48;;
81382;SDS011;70834;37.534;-122.308;2023-08-17T06:11:45;2.45;;;1.70;;
81382;SDS011;70834;37.534;-122.308;2023-08-17T06:14:07;1.85;;;1.50;;
81382;SDS011;70834;37.534;-122.308;2023-08-17T06:16:28;2.30;;;1.90;;
81382;SDS011;70834;37.534;-122.308;2023-08-17T06:18:50;3.20;;;1.80;;
81382;SDS011;70834;37.534;-122.308;2023-08-17T06:21:11;3.03;;;1.70;;
81382;SDS011;70834;37.534;-122.308;2023-08-17T06:23:32;5.25;;;2.08;;
81382;SDS011;70834;37.534;-122.308;2023-08-17T06:25:57;1.50;;;1.40;;
81382;SDS011;70834;37.534;-122.308;2023-08-17T06:28:19;2.50;;;1.65;;
81382;SDS011;70834;37.534;-122.308;2023-08-17T06:30:40;2.97;;;1.33;;
81382;SDS011;70834;37.534;-122.308;2023-08-17T06:33:02;2.05;;;1.35;;
81382;SDS011;70834;37.534;-122.308;2023-08-17T06:35:25;2.17;;;1.45;;
81382;SDS011;70834;37.534;-122.308;2023-08-17T06:37:46;3.63;;;2.22;;
81382;SDS011;70834;37.534;-122.308;2023-08-17T06:40:08;3.65;;;2.08;;
81382;SDS011;70834;37.534;-122.308;2023-08-17T06:42:30;2.60;;;1.92;;
81382;SDS011;70834;37.534;-122.308;2023-08-17T06:44:51;3.50;;;1.80;;
81382;SDS011;70834;37.534;-122.308;2023-08-17T06:47:13;2.60;;;1.75;;
81382;SDS011;70834;37.534;-122.308;2023-08-17T06:49:34;5.22;;;2.63;;
81382;SDS011;70834;37.534;-122.308;2023-08-17T06:51:56;3.20;;;2.50;;
81382;SDS011;70834;37.534;-122.308;2023-08-17T06:54:17;3.92;;;1.80;;
81382;SDS011;70834;37.534;-122.308;2023-08-17T06:56:39;3.58;;;2.08;;
81382;SDS011;70834;37.534;-122.308;2023-08-17T06:59:00;2.20;;;1.60;;
81382;SDS011;70834;37.534;-122.308;2023-08-17T07:01:23;1.83;;;1.38;;
81382;SDS011;70834;37.534;-122.308;2023-08-17T07:03:44;2.70;;;1.27;;
81382;SDS011;70834;37.534;-122.308;2023-08-17T07:06:06;2.60;;;1.70;;
81382;SDS011;70834;37.534;-122.308;2023-08-17T07:08:27;1.48;;;1.20;;
81382;SDS011;70834;37.534;-122.308;2023-08-17T07:10:48;2.95;;;1.48;;
81382;SDS011;70834;37.534;-122.308;2023-08-17T07:13:10;3.83;;;1.70;;
81382;SDS011;70834;37.534;-122.308;2023-08-17T07:15:32;2.63;;;1.60;;
81382;SDS011;70834;37.534;-122.308;2023-08-17T07:17:53;2.55;;;1.60;;
81382;SDS011;70834;37.534;-122.308;2023-08-17T07:20:14;2.30;;;1.38;;
81382;SDS011;70834;37.534;-122.308;2023-08-17T07:22:36;2.05;;;1.30;;
81382;SDS011;70834;37.534;-122.308;2023-08-17T07:24:57;2.00;;;1.38;;
81382;SDS011;70834;37.534;-122.308;2023-08-17T07:27:19;3.58;;;1.52;;
81382;SDS011;70834;37.534;-122.308;2023-08-17T07:29:40;2.53;;;1.52;;
81382;SDS011;70834;37.534;-122.308;2023-08-17T07:32:02;1.75;;;1.20;;
81382;SDS011;70834;37.534;-122.308;2023-08-17T07:34:23;1.65;;;1.38;;
81382;SDS011;70834;37.534;-122.308;2023-08-17T07:36:45;2.08;;;1.50;;
81382;SDS011;70834;37.534;-122.308;2023-08-17T07:39:06;1.50;;;1.15;;
81382;SDS011;70834;37.534;-122.308;2023-08-17T07:41:28;1.60;;;1.20;;
81382;SDS011;70834;37.534;-122.308;2023-08-17T07:43:49;3.65;;;1.33;;
81382;SDS011;70834;37.534;-122.308;2023-08-17T07:46:11;3.00;;;1.30;;
81382;SDS011;70834;37.534;-122.308;2023-08-17T07:48:32;1.08;;;0.95;;
81382;SDS011;70834;37.534;-122.308;2023-08-17T07:51:14;1.15;;;1.00;;
81382;SDS011;70834;37.534;-122.308;2023-08-17T07:53:35;1.30;;;0.98;;
81382;SDS011;70834;37.534;-122.308;2023-08-17T07:55:57;1.40;;;1.20;;
81382;SDS011;70834;37.534;-122.308;2023-08-17T07:58:18;2.40;;;1.27;;
81382;SDS011;70834;37.534;-122.308;2023-08-17T08:00:40;1.42;;;1.30;;
81382;SDS011;70834;37.534;-122.308;2023-08-17T08:03:01;1.75;;;1.10;;
81382;SDS011;70834;37.534;-122.308;2023-08-17T08:05:23;1.70;;;1.20;;
81382;SDS011;70834;37.534;-122.308;2023-08-17T08:07:44;1.50;;;1.17;;
81382;SDS011;70834;37.534;-122.308;2023-08-17T08:10:05;2.58;;;1.17;;
81382;SDS011;70834;37.534;-122.308;2023-08-17T08:12:27;2.70;;;1.27;;
81382;SDS011;70834;37.534;-122.308;2023-08-17T08:14:49;1.42;;;1.00;;
81382;SDS011;70834;37.534;-122.308;2023-08-17T08:17:11;1.42;;;0.90;;
81382;SDS011;70834;37.534;-122.308;2023-08-17T08:19:32;2.35;;;0.93;;
81382;SDS011;70834;37.534;-122.308;2023-08-17T08:21:54;2.17;;;1.40;;
81382;SDS011;70834;37.534;-122.308;2023-08-17T08:24:15;1.95;;;1.10;;
81382;SDS011;70834;37.534;-122.308;2023-08-17T08:26:37;3.72;;;1.20;;
81382;SDS011;70834;37.534;-122.308;2023-08-17T08:28:58;1.58;;;0.98;;
81382;SDS011;70834;37.534;-122.308;2023-08-17T08:31:20;1.17;;;1.00;;
81382;SDS011;70834;37.534;-122.308;2023-08-17T08:33:42;1.30;;;1.10;;
81382;SDS011;70834;37.534;-122.308;2023-08-17T08:36:04;1.10;;;1.00;;
81382;SDS011;70834;37.534;-122.308;2023-08-17T08:38:28;1.45;;;1.00;;
81382;SDS011;70834;37.534;-122.308;2023-08-17T08:40:49;1.05;;;0.93;;
81382;SDS011;70834;37.534;-122.308;2023-08-17T08:43:11;1.17;;;0.90;;
81382;SDS011;70834;37.534;-122.308;2023-08-17T08:45:35;2.03;;;1.13;;
81382;SDS011;70834;37.534;-122.308;2023-08-17T08:47:57;1.30;;;1.20;;
81382;SDS011;70834;37.534;-122.308;2023-08-17T08:50:21;2.85;;;1.05;;
81382;SDS011;70834;37.534;-122.308;2023-08-17T08:52:44;1.23;;;0.80;;
81382;SDS011;70834;37.534;-122.308;2023-08-17T08:55:21;1.45;;;0.90;;
81382;SDS011;70834;37.534;-122.308;2023-08-17T08:57:46;1.52;;;0.90;;
81382;SDS011;70834;37.534;-122.308;2023-08-17T09:00:13;1.85;;;1.55;;
81382;SDS011;70834;37.534;-122.308;2023-08-17T09:02:36;1.90;;;1.00;;
81382;SDS011;70834;37.534;-122.308;2023-08-17T09:04:59;1.13;;;1.00;;
81382;SDS011;70834;37.534;-122.308;2023-08-17T09:07:20;1.10;;;1.00;;
81382;SDS011;70834;37.534;-122.308;2023-08-17T09:09:44;1.88;;;0.90;;
81382;SDS011;70834;37.534;-122.308;2023-08-17T09:12:07;1.70;;;0.90;;
81382;SDS011;70834;37.534;-122.308;2023-08-17T09:14:29;1.55;;;1.02;;
81382;SDS011;70834;37.534;-122.308;2023-08-17T09:16:51;1.83;;;1.00;;
81382;SDS011;70834;37.534;-122.308;2023-08-17T09:19:12;1.73;;;1.13;;
81382;SDS011;70834;37.534;-122.308;2023-08-17T09:21:34;1.23;;;0.98;;
81382;SDS011;70834;37.534;-122.308;2023-08-17T09:23:56;1.77;;;1.00;;
81382;SDS011;70834;37.534;-122.308;2023-08-17T09:26:17;1.42;;;1.00;;
81382;SDS011;70834;37.534;-122.308;2023-08-17T09:28:43;1.83;;;1.00;;
81382;SDS011;70834;37.534;-122.308;2023-08-17T09:31:05;1.42;;;1.05;;
81382;SDS011;70834;37.534;-122.308;2023-08-17T09:33:28;1.80;;;1.30;;
81382;SDS011;70834;37.534;-122.308;2023-08-17T09:35:51;1.83;;;1.00;;
81382;SDS011;70834;37.534;-122.308;2023-08-17T09:38:13;1.20;;;0.90;;
81382;SDS011;70834;37.534;-122.308;2023-08-17T09:40:35;2.10;;;1.30;;
81382;SDS011;70834;37.534;-122.308;2023-08-17T09:42:56;5.03;;;0.93;;
81382;SDS011;70834;37.534;-122.308;2023-08-17T09:45:19;1.42;;;1.05;;
81382;SDS011;70834;37.534;-122.308;2023-08-17T09:47:42;1.83;;;1.60;;
81382;SDS011;70834;37.534;-122.308;2023-08-17T09:50:04;1.13;;;1.02;;
81382;SDS011;70834;37.534;-122.308;2023-08-17T09:52:27;1.05;;;1.00;;
81382;SDS011;70834;37.534;-122.308;2023-08-17T09:54:49;0.93;;;0.88;;
81382;SDS011;70834;37.534;-122.308;2023-08-17T09:57:12;1.02;;;0.88;;
81382;SDS011;70834;37.534;-122.308;2023-08-17T09:59:34;0.90;;;0.80;;
81382;SDS011;70834;37.534;-122.308;2023-08-17T10:01:56;2.70;;;0.85;;
81382;SDS011;70834;37.534;-122.308;2023-08-17T10:04:20;1.10;;;1.00;;
81382;SDS011;70834;37.534;-122.308;2023-08-17T10:06:43;1.67;;;0.98;;
81382;SDS011;70834;37.534;-122.308;2023-08-17T10:09:07;1.63;;;1.23;;
81382;SDS011;70834;37.534;-122.308;2023-08-17T10:11:33;1.05;;;0.75;;
81382;SDS011;70834;37.534;-122.308;2023-08-17T10:14:01;1.85;;;0.80;;
81382;SDS011;70834;37.534;-122.308;2023-08-17T10:16:49;1.33;;;0.88;;
81382;SDS011;70834;37.534;-122.308;2023-08-17T10:19:22;1.10;;;0.90;;
81382;SDS011;70834;37.534;-122.308;2023-08-17T10:24:54;1.63;;;1.17;;
81382;SDS011;70834;37.534;-122.308;2023-08-17T10:27:16;1.75;;;1.08;;
81382;SDS011;70834;37.534;-122.308;2023-08-17T10:29:38;2.33;;;1.10;;
81382;SDS011;70834;37.534;-122.308;2023-08-17T10:32:00;2.10;;;0.90;;
81382;SDS011;70834;37.534;-122.308;2023-08-17T10:34:22;1.65;;;1.25;;
81382;SDS011;70834;37.534;-122.308;2023-08-17T10:36:44;1.20;;;1.08;;
81382;SDS011;70834;37.534;-122.308;2023-08-17T10:39:26;1.20;;;1.10;;
81382;SDS011;70834;37.534;-122.308;2023-08-17T10:41:49;1.38;;;1.00;;
81382;SDS011;70834;37.534;-122.308;2023-08-17T10:44:11;2.10;;;1.30;;
81382;SDS011;70834;37.534;-122.308;2023-08-17T10:46:36;2.05;;;1.30;;
81382;SDS011;70834;37.534;-122.308;2023-08-17T10:49:03;1.48;;;1.20;;
81382;SDS011;70834;37.534;-122.308;2023-08-17T10:51:26;1.40;;;1.20;;
81382;SDS011;70834;37.534;-122.308;2023-08-17T10:53:47;2.00;;;1.17;;
81382;SDS011;70834;37.534;-122.308;2023-08-17T10:56:13;1.42;;;1.05;;
81382;SDS011;70834;37.534;-122.308;2023-08-17T10:58:37;1.90;;;1.35;;
81382;SDS011;70834;37.534;-122.308;2023-08-17T11:00:58;1.45;;;0.90;;
81382;SDS011;70834;37.534;-122.308;2023-08-17T11:03:20;1.13;;;1.10;;
81382;SDS011;70834;37.534;-122.308;2023-08-17T11:05:50;1.67;;;1.13;;
81382;SDS011;70834;37.534;-122.308;2023-08-17T11:08:33;1.10;;;1.00;;
81382;SDS011;70834;37.534;-122.308;2023-08-17T11:11:05;1.17;;;1.00;;
81382;SDS011;70834;37.534;-122.308;2023-08-17T11:13:31;1.10;;;1.00;;
81382;SDS011;70834;37.534;-122.308;2023-08-17T11:15:54;2.03;;;1.27;;
81382;SDS011;70834;37.534;-122.308;2023-08-17T11:18:15;1.73;;;1.30;;
81382;SDS011;70834;37.534;-122.308;2023-08-17T11:20:38;1.08;;;0.95;;
81382;SDS011;70834;37.534;-122.308;2023-08-17T11:23:01;1.85;;;1.42;;
81382;SDS011;70834;37.534;-122.308;2023-08-17T11:25:23;1.52;;;1.20;;
81382;SDS011;70834;37.534;-122.308;2023-08-17T11:27:46;1.92;;;1.17;;
81382;SDS011;70834;37.534;-122.308;2023-08-17T11:30:08;1.30;;;1.15;;
81382;SDS011;70834;37.534;-122.308;2023-08-17T11:32:30;1.42;;;0.98;;
81382;SDS011;70834;37.534;-122.308;2023-08-17T11:34:51;1.45;;;0.80;;
81382;SDS011;70834;37.534;-122.308;2023-08-17T11:37:13;1.30;;;1.00;;
81382;SDS011;70834;37.534;-122.308;2023-08-17T11:39:34;1.23;;;1.05;;
81382;SDS011;70834;37.534;-122.308;2023-08-17T11:41:56;2.28;;;0.85;;
81382;SDS011;70834;37.534;-122.308;2023-08-17T11:44:18;0.82;;;0.82;;
81382;SDS011;70834;37.534;-122.308;2023-08-17T11:46:42;1.33;;;0.90;;
81382;SDS011;70834;37.534;-122.308;2023-08-17T11:49:04;1.10;;;1.00;;
81382;SDS011;70834;37.534;-122.308;2023-08-17T11:51:29;1.25;;;0.95;;
81382;SDS011;70834;37.534;-122.308;2023-08-17T11:53:51;1.85;;;0.70;;
81382;SDS011;70834;37.534;-122.308;2023-08-17T11:56:13;0.70;;;0.70;;
81382;SDS011;70834;37.534;-122.308;2023-08-17T12:01:03;1.10;;;0.80;;
81382;SDS011;70834;37.534;-122.308;2023-08-17T12:03:30;1.00;;;0.90;;
81382;SDS011;70834;37.534;-122.308;2023-08-17T12:05:52;2.10;;;1.05;;
81382;SDS011;70834;37.534;-122.308;2023-08-17T12:08:14;0.90;;;0.90;;
81382;SDS011;70834;37.534;-122.308;2023-08-17T12:10:36;1.35;;;0.90;;
81382;SDS011;70834;37.534;-122.308;2023-08-17T12:12:58;1.58;;;1.10;;
81382;SDS011;70834;37.534;-122.308;2023-08-17T12:15:21;2.75;;;1.00;;
81382;SDS011;70834;37.534;-122.308;2023-08-17T12:17:46;1.08;;;0.95;;
81382;SDS011;70834;37.534;-122.308;2023-08-17T12:20:08;1.38;;;1.25;;
81382;SDS011;70834;37.534;-122.308;2023-08-17T12:22:35;1.05;;;0.95;;
81382;SDS011;70834;37.534;-122.308;2023-08-17T12:25:00;1.63;;;0.90;;
81382;SDS011;70834;37.534;-122.308;2023-08-17T12:27:21;2.42;;;1.00;;
81382;SDS011;70834;37.534;-122.308;2023-08-17T12:29:50;1.42;;;1.02;;
81382;SDS011;70834;37.534;-122.308;2023-08-17T12:32:13;2.92;;;1.27;;
81382;SDS011;70834;37.534;-122.308;2023-08-17T12:34:35;1.42;;;1.10;;
81382;SDS011;70834;37.534;-122.308;2023-08-17T12:36:57;1.27;;;1.08;;
81382;SDS011;70834;37.534;-122.308;2023-08-17T12:39:18;1.15;;;1.00;;
81382;SDS011;70834;37.534;-122.308;2023-08-17T12:41:40;1.10;;;1.00;;
81382;SDS011;70834;37.534;-122.308;2023-08-17T12:44:01;1.17;;;1.00;;
81382;SDS011;70834;37.534;-122.308;2023-08-17T12:46:22;1.27;;;1.15;;
81382;SDS011;70834;37.534;-122.308;2023-08-17T12:48:44;1.40;;;0.98;;
81382;SDS011;70834;37.534;-122.308;2023-08-17T12:51:05;1.42;;;1.15;;
81382;SDS011;70834;37.534;-122.308;2023-08-17T12:53:27;1.13;;;0.98;;
81382;SDS011;70834;37.534;-122.308;2023-08-17T12:55:48;1.10;;;1.00;;
81382;SDS011;70834;37.534;-122.308;2023-08-17T12:58:10;2.60;;;1.00;;
81382;SDS011;70834;37.534;-122.308;2023-08-17T13:00:31;1.60;;;0.73;;
81382;SDS011;70834;37.534;-122.308;2023-08-17T13:02:53;1.15;;;0.70;;
81382;SDS011;70834;37.534;-122.308;2023-08-17T13:05:14;1.02;;;0.90;;
81382;SDS011;70834;37.534;-122.308;2023-08-17T13:07:36;1.33;;;0.95;;
81382;SDS011;70834;37.534;-122.308;2023-08-17T13:09:57;1.40;;;0.98;;
81382;SDS011;70834;37.534;-122.308;2023-08-17T13:12:19;0.80;;;0.80;;
81382;SDS011;70834;37.534;-122.308;2023-08-17T13:14:40;2.58;;;0.90;;
81382;SDS011;70834;37.534;-122.308;2023-08-17T13:17:02;0.88;;;0.80;;
81382;SDS011;70834;37.534;-122.308;2023-08-17T13:19:23;1.33;;;0.90;;
81382;SDS011;70834;37.534;-122.308;2023-08-17T13:21:45;1.95;;;0.93;;
81382;SDS011;70834;37.534;-122.308;2023-08-17T13:24:06;0.57;;;0.52;;
81382;SDS011;70834;37.534;-122.308;2023-08-17T13:26:29;2.03;;;0.80;;
81382;SDS011;70834;37.534;-122.308;2023-08-17T13:28:51;0.70;;;0.70;;
81382;SDS011;70834;37.534;-122.308;2023-08-17T13:31:12;0.95;;;0.80;;
81382;SDS011;70834;37.534;-122.308;2023-08-17T13:33:34;0.77;;;0.70;;
81382;SDS011;70834;37.534;-122.308;2023-08-17T13:35:55;1.52;;;1.00;;
81382;SDS011;70834;37.534;-122.308;2023-08-17T13:38:17;0.63;;;0.63;;
81382;SDS011;70834;37.534;-122.308;2023-08-17T13:40:38;1.63;;;0.98;;
81382;SDS011;70834;37.534;-122.308;2023-08-17T13:42:59;1.27;;;0.90;;
81382;SDS011;70834;37.534;-122.308;2023-08-17T13:45:22;1.38;;;0.80;;
81382;SDS011;70834;37.534;-122.308;2023-08-17T13:47:43;0.80;;;0.80;;
81382;SDS011;70834;37.534;-122.308;2023-08-17T13:50:04;1.20;;;1.08;;